Time;durP1;ratioP1;P1;durP2;ratioP2;P2;SDS_P1;SDS_P2;PMS_P1;PMS_P2;Temp;Humidity;BMP_temperature;BMP_pressure;BME280_temperature;BME280_humidity;BME280_pressure;Samples;Min_cycle;Max_cycle;Signal;HPM_P1;HPM_P2
2021/09/17 00:00:51;;;;;;;41.78;13.50;;;;;;;;;;5096563;28;20047;-68
2021/09/17 00:03:18;;;;;;;122.18;17.23;;;;;;;;;;5097015;28;20043;-68
2021/09/17 00:05:44;;;;;;;210.55;18.02;;;;;;;;;;5094749;28;20135;-68
2021/09/17 00:08:10;;;;;;;264.17;18.35;;;;;;;;;;5077342;28;20044;-68
2021/09/17 00:10:36;;;;;;;154.30;15.70;;;;;;;;;;5079684;28;20428;-68
2021/09/17 00:13:03;;;;;;;290.60;19.50;;;;;;;;;;5082050;28;20042;-68
2021/09/17 00:15:29;;;;;;;406.08;23.60;;;;;;;;;;5076792;28;20075;-68
2021/09/17 00:17:56;;;;;;;311.83;18.77;;;;;;;;;;5061073;28;20040;-68
2021/09/17 00:20:22;;;;;;;307.80;16.92;;;;;;;;;;5076585;28;20051;-68
2021/09/17 00:22:49;;;;;;;233.95;13.20;;;;;;;;;;5079940;28;20051;-68
2021/09/17 00:25:15;;;;;;;263.45;14.00;;;;;;;;;;5079481;28;20435;-67
2021/09/17 00:27:41;;;;;;;113.97;10.73;;;;;;;;;;5096869;28;20040;-68
2021/09/17 00:30:07;;;;;;;111.03;8.60;;;;;;;;;;5079715;28;20472;-68
2021/09/17 00:32:34;;;;;;;81.28;8.30;;;;;;;;;;5079500;28;20040;-68
2021/09/17 00:35:00;;;;;;;84.30;8.57;;;;;;;;;;5077070;28;20067;-68
2021/09/17 00:37:26;;;;;;;48.45;7.70;;;;;;;;;;5079234;28;20040;-68
2021/09/17 00:39:52;;;;;;;65.40;8.88;;;;;;;;;;5080311;28;20036;-68
2021/09/17 00:42:18;;;;;;;68.85;9.57;;;;;;;;;;5074710;28;20059;-68
2021/09/17 00:44:45;;;;;;;24.45;9.65;;;;;;;;;;5078390;28;20044;-68
2021/09/17 00:47:11;;;;;;;12.88;9.75;;;;;;;;;;5077343;28;20048;-68
2021/09/17 00:49:37;;;;;;;20.70;12.32;;;;;;;;;;5077108;28;20499;-68
2021/09/17 00:52:03;;;;;;;19.65;14.00;;;;;;;;;;5073021;28;20395;-68
2021/09/17 00:54:34;;;;;;;21.75;16.90;;;;;;;;;;5074184;28;20040;-68
2021/09/17 00:57:00;;;;;;;22.73;18.95;;;;;;;;;;5081204;28;20064;-68
2021/09/17 00:59:26;;;;;;;20.98;16.08;;;;;;;;;;5080261;28;20055;-68
2021/09/17 01:01:52;;;;;;;24.67;18.50;;;;;;;;;;5078523;28;20141;-68
2021/09/17 01:04:18;;;;;;;23.02;18.15;;;;;;;;;;5063066;28;20310;-68
2021/09/17 01:06:44;;;;;;;23.98;18.73;;;;;;;;;;5082011;28;20040;-68
2021/09/17 01:09:11;;;;;;;24.77;19.25;;;;;;;;;;5082859;28;20364;-68
2021/09/17 01:11:37;;;;;;;28.02;19.23;;;;;;;;;;5080618;28;20048;-68
2021/09/17 01:14:04;;;;;;;27.80;20.85;;;;;;;;;;5079773;28;20040;-68
2021/09/17 01:16:30;;;;;;;26.63;20.15;;;;;;;;;;5077214;28;20086;-68
2021/09/17 01:18:56;;;;;;;28.10;20.30;;;;;;;;;;5080818;28;20128;-68
2021/09/17 01:21:23;;;;;;;27.10;22.20;;;;;;;;;;5078017;28;20543;-68
2021/09/17 01:23:50;;;;;;;24.08;19.60;;;;;;;;;;5081083;28;20516;-68
2021/09/17 01:26:17;;;;;;;24.55;19.98;;;;;;;;;;5083848;28;20072;-68
2021/09/17 01:28:43;;;;;;;26.48;20.55;;;;;;;;;;5080333;28;20114;-68
2021/09/17 01:31:09;;;;;;;28.60;19.65;;;;;;;;;;5079708;28;20051;-68
2021/09/17 01:33:35;;;;;;;28.92;22.77;;;;;;;;;;5078527;28;20062;-68
2021/09/17 01:36:04;;;;;;;32.15;24.73;;;;;;;;;;5093775;28;20136;-68
2021/09/17 01:38:31;;;;;;;29.90;22.70;;;;;;;;;;5080968;28;20050;-68
2021/09/17 01:40:57;;;;;;;29.60;23.63;;;;;;;;;;5086409;28;20089;-68
2021/09/17 01:43:25;;;;;;;29.48;23.75;;;;;;;;;;5081717;28;20459;-68
2021/09/17 01:45:51;;;;;;;36.70;26.50;;;;;;;;;;5099528;28;20039;-68
2021/09/17 01:48:17;;;;;;;35.30;27.02;;;;;;;;;;5101642;28;20122;-68
2021/09/17 01:50:43;;;;;;;30.63;23.80;;;;;;;;;;5081401;28;20040;-68
2021/09/17 01:53:10;;;;;;;33.95;25.60;;;;;;;;;;5082774;28;20032;-68
2021/09/17 01:55:36;;;;;;;37.17;26.85;;;;;;;;;;5099020;28;20044;-68
2021/09/17 01:58:03;;;;;;;33.17;26.65;;;;;;;;;;5086368;28;20043;-68
2021/09/17 02:00:30;;;;;;;36.63;26.65;;;;;;;;;;5099664;28;20036;-67
2021/09/17 02:02:56;;;;;;;37.90;27.20;;;;;;;;;;5078600;28;20047;-68
2021/09/17 02:05:22;;;;;;;51.72;30.88;;;;;;;;;;5098488;28;20252;-68
2021/09/17 02:07:49;;;;;;;36.53;26.67;;;;;;;;;;5080736;28;20044;-68
2021/09/17 02:10:15;;;;;;;90.18;27.42;;;;;;;;;;5099394;28;20425;-68
2021/09/17 02:12:41;;;;;;;217.93;27.50;;;;;;;;;;5082162;28;20051;-68
2021/09/17 02:15:09;;;;;;;165.48;25.83;;;;;;;;;;5086164;28;20535;-68
2021/09/17 02:17:35;;;;;;;58.65;21.27;;;;;;;;;;5093779;28;20403;-68
2021/09/17 02:20:02;;;;;;;67.93;23.10;;;;;;;;;;5082711;28;20039;-68
2021/09/17 02:22:29;;;;;;;29.60;23.20;;;;;;;;;;5099472;28;20040;-68
2021/09/17 02:24:55;;;;;;;34.50;24.05;;;;;;;;;;5079488;28;20051;-68
2021/09/17 02:27:22;;;;;;;31.85;21.15;;;;;;;;;;5098403;28;20050;-68
2021/09/17 02:29:48;;;;;;;77.00;22.90;;;;;;;;;;5100766;28;20070;-68
2021/09/17 02:32:14;;;;;;;26.38;19.30;;;;;;;;;;5099884;28;20055;-68
2021/09/17 02:34:41;;;;;;;29.40;20.98;;;;;;;;;;5078613;28;20044;-68
2021/09/17 02:37:07;;;;;;;25.92;21.20;;;;;;;;;;5102806;28;20036;-68
2021/09/17 02:39:33;;;;;;;28.25;22.38;;;;;;;;;;5085675;28;20432;-68
2021/09/17 02:42:00;;;;;;;32.30;23.80;;;;;;;;;;5079231;28;20438;-68
2021/09/17 02:44:26;;;;;;;30.45;24.95;;;;;;;;;;5083814;28;20086;-68
2021/09/17 02:46:52;;;;;;;33.75;25.67;;;;;;;;;;5099022;28;20067;-69
2021/09/17 02:49:18;;;;;;;31.50;26.00;;;;;;;;;;5079208;28;20590;-68
2021/09/17 02:51:46;;;;;;;34.00;26.65;;;;;;;;;;5079215;28;20407;-68
2021/09/17 02:54:12;;;;;;;33.15;25.77;;;;;;;;;;5077280;28;20787;-68
2021/09/17 02:56:38;;;;;;;39.83;29.85;;;;;;;;;;5097006;28;20043;-68
2021/09/17 02:59:05;;;;;;;42.95;29.77;;;;;;;;;;5098656;28;20043;-68
2021/09/17 03:01:31;;;;;;;43.22;29.88;;;;;;;;;;5077967;28;20059;-68
2021/09/17 03:03:57;;;;;;;38.45;29.65;;;;;;;;;;5100994;28;20122;-68
2021/09/17 03:06:23;;;;;;;38.03;29.60;;;;;;;;;;5079826;28;20452;-68
2021/09/17 03:08:50;;;;;;;40.28;29.60;;;;;;;;;;5081822;28;20112;-68
2021/09/17 03:11:16;;;;;;;41.17;28.70;;;;;;;;;;5081469;28;20039;-68
2021/09/17 03:13:42;;;;;;;34.83;27.92;;;;;;;;;;5098228;28;20040;-68
2021/09/17 03:16:11;;;;;;;41.97;30.67;;;;;;;;;;5064125;28;20134;-68
2021/09/17 03:18:38;;;;;;;39.55;30.27;;;;;;;;;;5099114;28;20043;-68
2021/09/17 03:21:04;;;;;;;39.97;30.48;;;;;;;;;;5078453;28;20046;-68
2021/09/17 03:23:30;;;;;;;50.47;33.53;;;;;;;;;;5094430;28;20047;-68
2021/09/17 03:25:57;;;;;;;52.50;34.80;;;;;;;;;;5097330;28;20064;-68
2021/09/17 03:28:23;;;;;;;63.60;37.60;;;;;;;;;;5082560;28;20624;-68
2021/09/17 03:30:49;;;;;;;58.38;38.00;;;;;;;;;;5099439;28;20047;-68
2021/09/17 03:33:16;;;;;;;52.15;35.95;;;;;;;;;;5083181;28;20475;-68
2021/09/17 03:35:42;;;;;;;56.55;38.70;;;;;;;;;;5098004;28;20080;-68
2021/09/17 03:38:09;;;;;;;55.22;38.45;;;;;;;;;;5079620;28;20055;-68
2021/09/17 03:40:36;;;;;;;54.33;37.25;;;;;;;;;;5098284;28;20568;-68
2021/09/17 03:43:03;;;;;;;53.20;38.47;;;;;;;;;;5079020;28;20096;-68
2021/09/17 03:45:31;;;;;;;58.42;37.35;;;;;;;;;;5080999;28;20122;-68
2021/09/17 03:47:58;;;;;;;59.35;40.30;;;;;;;;;;5081285;28;20052;-68
2021/09/17 03:50:24;;;;;;;58.50;37.28;;;;;;;;;;5079847;28;20100;-68
2021/09/17 03:52:50;;;;;;;63.97;39.80;;;;;;;;;;5078393;28;20048;-68
2021/09/17 03:55:17;;;;;;;61.70;40.90;;;;;;;;;;5100847;28;20047;-68
2021/09/17 03:57:43;;;;;;;58.38;38.85;;;;;;;;;;5080847;28;20153;-68
2021/09/17 04:00:09;;;;;;;70.65;42.15;;;;;;;;;;5097459;28;20077;-68
2021/09/17 04:02:35;;;;;;;59.33;38.97;;;;;;;;;;5097120;28;20047;-68
2021/09/17 04:05:01;;;;;;;61.45;39.13;;;;;;;;;;5099121;28;20495;-68
2021/09/17 04:07:28;;;;;;;58.15;39.35;;;;;;;;;;5077594;28;20511;-68
2021/09/17 04:09:54;;;;;;;68.43;41.30;;;;;;;;;;5078123;28;20040;-68
2021/09/17 04:12:20;;;;;;;58.88;39.80;;;;;;;;;;5099400;28;20039;-68
2021/09/17 04:14:46;;;;;;;63.42;40.67;;;;;;;;;;5077548;28;20043;-68
2021/09/17 04:17:12;;;;;;;61.85;38.22;;;;;;;;;;5098186;28;20039;-68
2021/09/17 04:19:39;;;;;;;60.55;38.92;;;;;;;;;;5078616;28;20054;-68
2021/09/17 04:22:06;;;;;;;74.32;42.28;;;;;;;;;;5080279;28;20047;-68
2021/09/17 04:24:32;;;;;;;61.28;39.20;;;;;;;;;;5099772;28;20115;-68
2021/09/17 04:26:58;;;;;;;78.57;42.83;;;;;;;;;;5095114;28;20050;-68
2021/09/17 04:29:25;;;;;;;73.18;42.05;;;;;;;;;;5078387;28;20769;-68
2021/09/17 04:31:51;;;;;;;72.22;42.83;;;;;;;;;;5078049;28;20048;-68
2021/09/17 04:34:17;;;;;;;53.72;38.15;;;;;;;;;;5079429;28;20050;-69
2021/09/17 04:36:43;;;;;;;66.57;41.95;;;;;;;;;;5066025;28;20050;-68
2021/09/17 04:39:09;;;;;;;74.10;43.45;;;;;;;;;;5076398;28;20035;-68
2021/09/17 04:41:36;;;;;;;63.45;42.22;;;;;;;;;;5078675;28;20057;-68
2021/09/17 04:44:02;;;;;;;74.07;44.90;;;;;;;;;;5057556;28;20490;-68
2021/09/17 04:46:28;;;;;;;62.63;40.22;;;;;;;;;;5097798;28;20041;-68
2021/09/17 04:48:54;;;;;;;70.80;43.58;;;;;;;;;;5098615;28;20058;-68
2021/09/17 04:51:20;;;;;;;91.15;48.05;;;;;;;;;;5100946;28;20031;-68
2021/09/17 04:53:46;;;;;;;71.15;43.40;;;;;;;;;;5097653;28;20509;-69
2021/09/17 04:56:13;;;;;;;66.75;43.67;;;;;;;;;;5096112;28;20044;-69
2021/09/17 04:58:39;;;;;;;78.97;45.15;;;;;;;;;;5095849;28;20452;-68
2021/09/17 05:01:05;;;;;;;67.30;42.08;;;;;;;;;;5056009;28;20036;-68
2021/09/17 05:03:31;;;;;;;64.80;42.65;;;;;;;;;;5067836;28;20390;-68
2021/09/17 05:05:57;;;;;;;63.50;41.25;;;;;;;;;;5094962;28;20125;-68
2021/09/17 05:08:23;;;;;;;64.88;43.13;;;;;;;;;;5077783;28;20044;-68
2021/09/17 05:10:50;;;;;;;105.78;51.92;;;;;;;;;;5078445;28;20039;-68
2021/09/17 05:13:16;;;;;;;84.93;46.08;;;;;;;;;;5094434;28;20075;-68
2021/09/17 05:15:42;;;;;;;58.25;37.40;;;;;;;;;;5079602;28;20062;-68
2021/09/17 05:18:08;;;;;;;49.20;33.50;;;;;;;;;;5079150;28;20060;-68
2021/09/17 05:20:34;;;;;;;56.20;35.10;;;;;;;;;;5077013;28;20046;-69
2021/09/17 05:23:01;;;;;;;53.03;34.55;;;;;;;;;;5077291;28;20040;-68
2021/09/17 05:25:27;;;;;;;57.03;37.00;;;;;;;;;;5077207;28;20388;-69
2021/09/17 05:27:53;;;;;;;48.95;33.53;;;;;;;;;;5079225;28;20139;-69
2021/09/17 05:30:20;;;;;;;54.38;37.83;;;;;;;;;;5098027;28;20040;-69
2021/09/17 05:32:46;;;;;;;54.55;36.35;;;;;;;;;;5079481;28;20169;-69
2021/09/17 05:35:12;;;;;;;66.75;40.35;;;;;;;;;;5073424;28;20045;-69
2021/09/17 05:37:38;;;;;;;70.55;42.22;;;;;;;;;;5073759;28;20321;-68
2021/09/17 05:40:05;;;;;;;59.13;38.63;;;;;;;;;;5074219;28;20044;-69
2021/09/17 05:42:31;;;;;;;71.35;42.63;;;;;;;;;;5078933;28;20452;-68
2021/09/17 05:44:58;;;;;;;83.28;45.78;;;;;;;;;;5085436;28;20449;-68
2021/09/17 05:47:24;;;;;;;70.07;42.53;;;;;;;;;;5085244;28;20115;-69
2021/09/17 05:49:50;;;;;;;67.65;41.45;;;;;;;;;;5082099;28;20056;-69
2021/09/17 05:52:17;;;;;;;67.55;42.13;;;;;;;;;;5085150;28;20120;-69
2021/09/17 05:54:44;;;;;;;71.55;42.78;;;;;;;;;;5085521;28;20047;-68
2021/09/17 05:57:10;;;;;;;72.90;43.78;;;;;;;;;;5079375;28;20048;-68
2021/09/17 05:59:36;;;;;;;77.57;46.58;;;;;;;;;;5086130;28;20040;-68
2021/09/17 06:02:05;;;;;;;80.75;47.03;;;;;;;;;;5085075;28;20535;-68
2021/09/17 06:04:32;;;;;;;104.15;53.67;;;;;;;;;;5084618;28;20049;-69
2021/09/17 06:06:58;;;;;;;81.00;48.83;;;;;;;;;;5083979;28;20115;-69
2021/09/17 06:09:24;;;;;;;85.18;48.72;;;;;;;;;;5085301;28;20548;-69
2021/09/17 06:11:50;;;;;;;92.60;52.60;;;;;;;;;;5085556;28;20037;-69
2021/09/17 06:14:16;;;;;;;89.00;51.78;;;;;;;;;;5085255;28;20471;-70
2021/09/17 06:16:43;;;;;;;84.40;49.58;;;;;;;;;;5086514;28;20144;-68
2021/09/17 06:19:09;;;;;;;96.30;51.95;;;;;;;;;;5082833;28;20447;-68
2021/09/17 06:21:35;;;;;;;87.00;50.97;;;;;;;;;;5079977;28;20113;-68
2021/09/17 06:24:02;;;;;;;101.18;53.22;;;;;;;;;;5079491;28;20121;-68
2021/09/17 06:26:30;;;;;;;91.68;50.65;;;;;;;;;;5082832;28;20059;-68
2021/09/17 06:28:58;;;;;;;89.47;51.42;;;;;;;;;;5085329;28;20044;-68
2021/09/17 06:31:24;;;;;;;86.18;50.75;;;;;;;;;;5084332;28;20055;-68
2021/09/17 06:33:50;;;;;;;91.13;52.45;;;;;;;;;;5079194;28;20040;-68
2021/09/17 06:36:18;;;;;;;90.75;54.20;;;;;;;;;;5104794;28;20075;-68
2021/09/17 06:38:44;;;;;;;106.70;55.33;;;;;;;;;;5088218;28;20511;-68
2021/09/17 06:41:10;;;;;;;111.20;56.72;;;;;;;;;;5097042;28;20044;-68
2021/09/17 06:43:37;;;;;;;99.82;57.55;;;;;;;;;;5087530;28;20122;-72
2021/09/17 06:46:03;;;;;;;114.63;59.13;;;;;;;;;;5081426;28;20127;-68
2021/09/17 06:48:29;;;;;;;107.85;55.72;;;;;;;;;;5081463;28;20058;-68
2021/09/17 06:50:55;;;;;;;115.70;59.40;;;;;;;;;;5106610;28;20039;-68
2021/09/17 06:53:22;;;;;;;131.93;64.35;;;;;;;;;;5100433;28;20839;-68
2021/09/17 06:55:48;;;;;;;125.50;59.10;;;;;;;;;;5100287;28;20044;-68
2021/09/17 06:58:14;;;;;;;124.18;60.33;;;;;;;;;;5089067;28;20387;-68
2021/09/17 07:00:40;;;;;;;117.47;59.03;;;;;;;;;;5076646;28;20075;-68
2021/09/17 07:03:07;;;;;;;117.95;59.65;;;;;;;;;;5078022;28;20517;-68
2021/09/17 07:05:34;;;;;;;109.82;60.05;;;;;;;;;;5101268;28;20491;-68
2021/09/17 07:08:01;;;;;;;122.72;58.13;;;;;;;;;;5096519;28;20078;-68
2021/09/17 07:10:28;;;;;;;105.00;55.63;;;;;;;;;;5103990;28;20097;-68
2021/09/17 07:12:54;;;;;;;119.03;63.05;;;;;;;;;;5089804;28;20123;-68
2021/09/17 07:15:20;;;;;;;119.10;59.72;;;;;;;;;;5077608;28;20074;-68
2021/09/17 07:17:46;;;;;;;104.32;55.65;;;;;;;;;;5078286;28;20048;-68
2021/09/17 07:20:13;;;;;;;90.60;50.17;;;;;;;;;;5084121;28;20069;-68
2021/09/17 07:22:39;;;;;;;98.35;53.28;;;;;;;;;;5081059;28;20048;-68
2021/09/17 07:25:06;;;;;;;106.45;53.97;;;;;;;;;;5079600;28;20048;-68
2021/09/17 07:27:32;;;;;;;90.18;53.85;;;;;;;;;;5079223;28;20395;-68
2021/09/17 07:29:59;;;;;;;75.03;45.70;;;;;;;;;;5080167;28;20063;-67
2021/09/17 07:32:25;;;;;;;82.78;49.33;;;;;;;;;;5100858;28;20080;-68
2021/09/17 07:34:51;;;;;;;84.88;48.88;;;;;;;;;;5104800;28;20050;-67
2021/09/17 07:37:18;;;;;;;87.05;50.10;;;;;;;;;;5084897;28;20070;-68
2021/09/17 07:39:44;;;;;;;75.15;46.30;;;;;;;;;;5101682;28;20045;-68
2021/09/17 07:42:10;;;;;;;73.93;44.50;;;;;;;;;;5096289;28;20091;-68
2021/09/17 07:44:37;;;;;;;80.25;47.30;;;;;;;;;;5097947;28;20050;-68
2021/09/17 07:47:04;;;;;;;62.45;42.17;;;;;;;;;;5079295;28;20039;-68
2021/09/17 07:49:30;;;;;;;69.75;43.95;;;;;;;;;;5100704;28;20077;-68
2021/09/17 07:51:56;;;;;;;63.03;40.50;;;;;;;;;;5082332;28;20063;-68
2021/09/17 07:54:23;;;;;;;54.60;37.95;;;;;;;;;;5084977;28;20471;-68
2021/09/17 07:56:50;;;;;;;64.10;40.25;;;;;;;;;;5080021;28;20065;-68
2021/09/17 07:59:16;;;;;;;56.42;39.25;;;;;;;;;;5078854;28;20036;-68
2021/09/17 08:01:42;;;;;;;65.15;39.80;;;;;;;;;;5081988;28;20513;-68
2021/09/17 08:04:09;;;;;;;69.50;44.20;;;;;;;;;;5076925;28;20127;-68
2021/09/17 08:06:35;;;;;;;71.63;43.30;;;;;;;;;;5079436;28;20044;-68
2021/09/17 08:09:01;;;;;;;61.67;40.30;;;;;;;;;;5098299;28;20085;-68
2021/09/17 08:11:27;;;;;;;62.80;39.03;;;;;;;;;;5079623;28;20040;-69
2021/09/17 08:13:53;;;;;;;57.75;37.67;;;;;;;;;;5093564;28;20114;-68
2021/09/17 08:16:20;;;;;;;53.35;37.80;;;;;;;;;;5078723;28;20068;-68
2021/09/17 08:18:46;;;;;;;51.38;37.75;;;;;;;;;;5078890;28;20047;-69
2021/09/17 08:21:13;;;;;;;50.83;36.25;;;;;;;;;;5080060;28;20079;-68
2021/09/17 08:23:40;;;;;;;39.92;32.65;;;;;;;;;;5106176;28;20609;-68
2021/09/17 08:26:07;;;;;;;50.78;37.15;;;;;;;;;;5103648;28;20368;-68
2021/09/17 08:28:33;;;;;;;46.08;33.53;;;;;;;;;;5100077;28;20044;-68
2021/09/17 08:31:01;;;;;;;45.53;32.83;;;;;;;;;;5081737;28;20577;-68
2021/09/17 08:33:28;;;;;;;45.33;32.80;;;;;;;;;;5104455;28;20439;-68
2021/09/17 08:35:54;;;;;;;36.83;28.08;;;;;;;;;;5083302;28;20488;-68
2021/09/17 08:38:20;;;;;;;38.83;30.35;;;;;;;;;;5103210;28;20441;-68
2021/09/17 08:40:46;;;;;;;38.50;28.38;;;;;;;;;;5094927;28;20097;-68
2021/09/17 08:43:14;;;;;;;38.83;28.33;;;;;;;;;;5107680;28;20131;-68
2021/09/17 08:45:40;;;;;;;38.40;29.55;;;;;;;;;;5085163;28;20476;-69
2021/09/17 08:48:06;;;;;;;37.42;27.88;;;;;;;;;;5074278;28;20047;-69
2021/09/17 08:50:33;;;;;;;35.95;28.58;;;;;;;;;;5071328;28;20482;-69
2021/09/17 08:52:59;;;;;;;35.35;26.40;;;;;;;;;;5098279;28;20080;-69
2021/09/17 08:55:25;;;;;;;38.60;27.83;;;;;;;;;;5080155;28;20055;-69
2021/09/17 08:57:51;;;;;;;31.67;25.13;;;;;;;;;;5104418;28;20039;-69
2021/09/17 09:00:36;;;;;;;32.75;25.40;;;;;;;;;;5085558;28;20200;-69
2021/09/17 09:03:03;;;;;;;32.53;25.88;;;;;;;;;;5107574;28;20040;-69
2021/09/17 09:05:32;;;;;;;30.40;25.00;;;;;;;;;;5097151;28;20044;-69
2021/09/17 09:07:58;;;;;;;29.70;22.42;;;;;;;;;;5076007;28;20066;-69
2021/09/17 09:10:25;;;;;;;30.40;21.85;;;;;;;;;;5083794;28;20044;-69
2021/09/17 09:12:52;;;;;;;26.83;20.55;;;;;;;;;;5084965;28;20039;-69
2021/09/17 09:15:18;;;;;;;27.75;19.30;;;;;;;;;;5086197;28;20061;-69
2021/09/17 09:17:45;;;;;;;26.92;21.17;;;;;;;;;;5103685;28;20050;-69
2021/09/17 09:20:32;;;;;;;24.95;20.08;;;;;;;;;;5100106;28;20063;-69
2021/09/17 09:23:09;;;;;;;25.80;20.63;;;;;;;;;;5084182;28;20135;-68
2021/09/17 09:25:36;;;;;;;24.48;20.48;;;;;;;;;;5079949;28;20200;-68
2021/09/17 09:28:14;;;;;;;24.55;19.33;;;;;;;;;;5100010;28;20062;-68
2021/09/17 09:30:40;;;;;;;26.02;20.38;;;;;;;;;;5100076;28;20395;-68
2021/09/17 09:33:20;;;;;;;23.98;19.13;;;;;;;;;;5086518;28;20391;-69
2021/09/17 09:35:47;;;;;;;21.95;17.10;;;;;;;;;;5079483;28;20109;-69
2021/09/17 09:38:27;;;;;;;21.88;17.23;;;;;;;;;;5083344;28;20126;-68
2021/09/17 09:40:58;;;;;;;22.20;18.05;;;;;;;;;;5101624;28;20186;-68
2021/09/17 09:43:27;;;;;;;22.30;17.55;;;;;;;;;;5102610;28;20054;-69
2021/09/17 09:45:53;;;;;;;20.92;17.00;;;;;;;;;;5081451;28;20556;-69
2021/09/17 09:48:19;;;;;;;22.42;18.38;;;;;;;;;;5079988;28;20079;-68
2021/09/17 09:50:46;;;;;;;22.73;17.77;;;;;;;;;;5078757;28;20506;-69
2021/09/17 09:53:15;;;;;;;22.17;15.48;;;;;;;;;;5106296;28;20560;-67
2021/09/17 09:55:42;;;;;;;23.55;16.73;;;;;;;;;;5087506;28;20372;-68
2021/09/17 09:58:09;;;;;;;19.25;16.35;;;;;;;;;;5066905;28;20043;-67
2021/09/17 10:00:36;;;;;;;15.88;10.80;;;;;;;;;;5085771;28;20177;-67
2021/09/17 10:03:02;;;;;;;15.75;11.45;;;;;;;;;;5082013;28;20047;-67
2021/09/17 10:05:30;;;;;;;17.05;12.43;;;;;;;;;;5087935;28;20039;-68
2021/09/17 10:07:57;;;;;;;14.48;11.00;;;;;;;;;;5100536;28;20040;-67
2021/09/17 10:10:23;;;;;;;18.60;11.73;;;;;;;;;;5101869;28;20055;-68
2021/09/17 10:12:50;;;;;;;15.38;12.23;;;;;;;;;;5101964;28;20098;-68
2021/09/17 10:15:16;;;;;;;16.33;12.93;;;;;;;;;;5082223;28;20104;-68
2021/09/17 10:17:48;;;;;;;16.23;10.73;;;;;;;;;;5083673;28;20056;-68
2021/09/17 10:20:14;;;;;;;14.73;11.10;;;;;;;;;;5082941;28;20089;-68
2021/09/17 10:22:41;;;;;;;18.48;12.10;;;;;;;;;;5084534;28;20042;-67
2021/09/17 10:25:09;;;;;;;16.85;12.82;;;;;;;;;;5101683;28;20039;-67
2021/09/17 10:27:36;;;;;;;14.10;11.65;;;;;;;;;;5105990;28;20081;-67
2021/09/17 10:30:04;;;;;;;14.68;10.63;;;;;;;;;;5101939;28;20482;-68
2021/09/17 10:32:33;;;;;;;12.55;9.90;;;;;;;;;;5082541;28;20044;-68
2021/09/17 10:35:04;;;;;;;11.50;9.30;;;;;;;;;;5084209;28;20141;-68
2021/09/17 10:37:49;;;;;;;12.98;9.43;;;;;;;;;;5082105;28;20526;-68
2021/09/17 10:40:16;;;;;;;10.52;8.02;;;;;;;;;;5098724;28;20054;-67
2021/09/17 10:43:06;;;;;;;12.57;8.50;;;;;;;;;;5078529;28;20510;-67
2021/09/17 10:45:38;;;;;;;9.68;7.75;;;;;;;;;;5098797;28;20383;-68
2021/09/17 10:48:05;;;;;;;11.00;8.00;;;;;;;;;;5083930;28;20142;-68
2021/09/17 10:50:45;;;;;;;10.43;6.75;;;;;;;;;;5101326;28;20371;-68
2021/09/17 10:53:12;;;;;;;9.73;7.00;;;;;;;;;;5098773;28;20032;-68
2021/09/17 10:55:44;;;;;;;10.05;6.10;;;;;;;;;;5101337;28;20094;-68
2021/09/17 10:58:26;;;;;;;15.32;9.63;;;;;;;;;;5099954;28;20531;-67
2021/09/17 11:00:53;;;;;;;11.23;8.90;;;;;;;;;;5082322;28;20044;-68
2021/09/17 11:03:45;;;;;;;12.45;9.00;;;;;;;;;;5080728;28;20044;-67
2021/09/17 11:06:18;;;;;;;10.65;8.18;;;;;;;;;;5077879;28;21339;-68
2021/09/17 11:08:45;;;;;;;9.82;7.95;;;;;;;;;;5095075;28;20067;-68
2021/09/17 11:11:23;;;;;;;11.95;8.65;;;;;;;;;;5084419;28;20530;-67
2021/09/17 11:13:49;;;;;;;9.77;6.50;;;;;;;;;;5078092;28;20389;-67
2021/09/17 11:16:17;;;;;;;9.60;6.63;;;;;;;;;;5076210;28;20052;-68
2021/09/17 11:18:53;;;;;;;7.70;5.57;;;;;;;;;;5078993;28;20491;-67
2021/09/17 11:21:20;;;;;;;11.07;7.00;;;;;;;;;;5098535;28;20525;-67
2021/09/17 11:23:49;;;;;;;8.65;6.68;;;;;;;;;;5105488;28;20494;-67
2021/09/17 11:26:20;;;;;;;11.93;7.40;;;;;;;;;;5096377;28;20122;-68
2021/09/17 11:28:57;;;;;;;8.60;6.72;;;;;;;;;;5074389;28;20102;-67
2021/09/17 11:31:25;;;;;;;10.52;7.18;;;;;;;;;;5092559;28;20412;-67
2021/09/17 11:33:56;;;;;;;10.77;6.03;;;;;;;;;;5081506;28;20048;-67
2021/09/17 11:36:34;;;;;;;8.40;6.10;;;;;;;;;;5069643;28;20051;-68
2021/09/17 11:39:11;;;;;;;8.63;6.28;;;;;;;;;;5076482;28;20518;-67
2021/09/17 11:41:38;;;;;;;8.10;6.15;;;;;;;;;;5096431;28;20079;-68
2021/09/17 11:44:04;;;;;;;8.20;6.50;;;;;;;;;;5097114;28;20089;-67
2021/09/17 11:46:31;;;;;;;10.77;6.28;;;;;;;;;;5077288;28;20048;-68
2021/09/17 11:48:57;;;;;;;11.13;7.07;;;;;;;;;;5098963;28;20040;-69
2021/09/17 11:51:23;;;;;;;10.10;6.47;;;;;;;;;;5076497;28;20061;-68
2021/09/17 11:53:50;;;;;;;11.23;7.22;;;;;;;;;;5084349;28;20036;-69
2021/09/17 11:56:16;;;;;;;12.88;7.32;;;;;;;;;;5077300;28;20417;-69
2021/09/17 11:58:42;;;;;;;12.82;7.90;;;;;;;;;;5080026;28;20137;-70
2021/09/17 12:01:19;;;;;;;10.57;7.30;;;;;;;;;;5093366;28;20084;-67
2021/09/17 12:03:46;;;;;;;10.90;7.13;;;;;;;;;;5093674;28;20051;-67
2021/09/17 12:06:15;;;;;;;11.88;7.05;;;;;;;;;;5082046;28;20040;-68
2021/09/17 12:08:41;;;;;;;9.52;6.80;;;;;;;;;;5095889;28;20059;-68
2021/09/17 12:11:07;;;;;;;13.35;8.35;;;;;;;;;;5074763;28;20089;-68
2021/09/17 12:13:33;;;;;;;8.70;7.28;;;;;;;;;;5096099;28;20048;-68
2021/09/17 12:16:00;;;;;;;12.05;7.72;;;;;;;;;;5079830;28;20092;-68
2021/09/17 12:18:29;;;;;;;13.45;8.48;;;;;;;;;;5094459;28;20051;-67
2021/09/17 12:20:55;;;;;;;10.07;7.28;;;;;;;;;;5093755;28;20040;-68
2021/09/17 12:23:22;;;;;;;11.05;6.90;;;;;;;;;;5057987;28;20498;-68
2021/09/17 12:25:50;;;;;;;8.82;7.07;;;;;;;;;;5098201;28;20067;-68
2021/09/17 12:28:19;;;;;;;9.15;6.45;;;;;;;;;;5094499;28;20040;-67
2021/09/17 12:30:46;;;;;;;10.20;7.03;;;;;;;;;;5082021;28;20115;-67
2021/09/17 12:33:14;;;;;;;10.05;7.05;;;;;;;;;;5081401;28;20036;-69
2021/09/17 12:35:43;;;;;;;10.32;6.88;;;;;;;;;;5077858;28;20378;-69
2021/09/17 12:38:10;;;;;;;11.57;7.47;;;;;;;;;;5092130;28;20478;-69
2021/09/17 12:40:38;;;;;;;13.00;7.63;;;;;;;;;;5072520;28;20071;-69
2021/09/17 12:43:07;;;;;;;9.13;6.50;;;;;;;;;;5091645;28;20059;-69
2021/09/17 12:45:34;;;;;;;10.70;7.05;;;;;;;;;;5079169;28;20081;-69
2021/09/17 12:48:01;;;;;;;9.52;6.80;;;;;;;;;;5092844;28;20079;-68
2021/09/17 12:50:29;;;;;;;9.15;6.70;;;;;;;;;;5081609;28;20040;-69
2021/09/17 12:52:55;;;;;;;8.52;6.95;;;;;;;;;;5081280;28;20040;-69
2021/09/17 12:55:24;;;;;;;9.68;7.15;;;;;;;;;;5084777;28;20444;-69
2021/09/17 12:57:58;;;;;;;11.48;7.13;;;;;;;;;;5102904;28;20468;-67
2021/09/17 13:00:25;;;;;;;10.45;6.80;;;;;;;;;;5083778;28;20105;-68
2021/09/17 13:02:52;;;;;;;10.95;7.57;;;;;;;;;;5087377;28;20048;-67
2021/09/17 13:05:18;;;;;;;9.27;7.03;;;;;;;;;;5099274;28;20039;-68
2021/09/17 13:07:45;;;;;;;11.02;7.75;;;;;;;;;;5080271;28;20071;-68
2021/09/17 13:10:11;;;;;;;10.68;6.45;;;;;;;;;;5103570;28;20040;-68
2021/09/17 13:12:37;;;;;;;11.93;7.72;;;;;;;;;;5103471;28;20043;-68
2021/09/17 13:15:04;;;;;;;10.75;6.80;;;;;;;;;;5100995;28;20118;-68
2021/09/17 13:17:30;;;;;;;9.90;7.03;;;;;;;;;;5089829;28;20044;-68
2021/09/17 13:19:58;;;;;;;12.55;7.13;;;;;;;;;;5102337;28;20040;-68
2021/09/17 13:22:24;;;;;;;11.30;7.65;;;;;;;;;;5102916;28;20132;-68
2021/09/17 13:24:50;;;;;;;9.57;7.25;;;;;;;;;;5084363;28;20040;-68
2021/09/17 13:27:17;;;;;;;10.35;7.30;;;;;;;;;;5084492;28;20184;-68
2021/09/17 13:29:43;;;;;;;10.00;7.97;;;;;;;;;;5081035;28;20118;-70
2021/09/17 13:32:09;;;;;;;9.27;7.13;;;;;;;;;;5080899;28;20055;-68
2021/09/17 13:34:35;;;;;;;8.38;7.47;;;;;;;;;;5085984;28;20336;-68
2021/09/17 13:37:02;;;;;;;14.05;7.72;;;;;;;;;;5085216;28;20420;-68
2021/09/17 13:39:28;;;;;;;12.70;7.18;;;;;;;;;;5085479;28;20081;-68
2021/09/17 13:41:54;;;;;;;11.10;7.35;;;;;;;;;;5080123;28;20044;-68
2021/09/17 13:44:20;;;;;;;11.32;8.15;;;;;;;;;;5085644;28;20047;-68
2021/09/17 13:46:47;;;;;;;8.48;6.78;;;;;;;;;;5085743;28;20059;-68
2021/09/17 13:49:13;;;;;;;11.60;7.30;;;;;;;;;;5098683;28;20035;-68
2021/09/17 13:51:39;;;;;;;10.27;7.57;;;;;;;;;;5081777;28;20404;-68
2021/09/17 13:54:05;;;;;;;11.77;7.45;;;;;;;;;;5081671;28;20036;-68
2021/09/17 13:56:31;;;;;;;8.57;6.93;;;;;;;;;;5081184;28;20055;-68
2021/09/17 13:58:58;;;;;;;10.45;6.78;;;;;;;;;;5098663;28;20036;-68
2021/09/17 14:01:24;;;;;;;8.98;6.70;;;;;;;;;;5082477;28;20039;-68
2021/09/17 14:03:51;;;;;;;12.23;7.32;;;;;;;;;;5079322;28;20077;-68
2021/09/17 14:06:17;;;;;;;11.45;7.20;;;;;;;;;;5080158;28;20507;-68
2021/09/17 14:08:43;;;;;;;10.82;7.07;;;;;;;;;;5101576;28;20440;-68
2021/09/17 14:11:10;;;;;;;8.50;6.28;;;;;;;;;;5079980;28;20115;-68
2021/09/17 14:13:37;;;;;;;9.63;6.95;;;;;;;;;;5084112;28;20487;-68
2021/09/17 14:16:03;;;;;;;8.95;5.40;;;;;;;;;;5102433;28;20040;-68
2021/09/17 14:18:29;;;;;;;8.27;6.00;;;;;;;;;;5101474;28;20081;-68
2021/09/17 14:20:55;;;;;;;9.77;5.28;;;;;;;;;;5081500;28;20084;-68